Mc Kinnon, Wyoming
Current Conditions -  °F | °C
As of 3:35 AM on Wednesday 22 Oct 2014 (Local Time) from KFBR Reporting Station
Clear Clear  
Wind Chill: 35°   Ceiling: Unl
Heat Index: 35°   Visibility: NA
Dew Point: 27°   Wind: 0mph
Humidity: 75%   Direction: NA
Pressure: 30.17"   Gusts: NA
Location:  41.275°N, 109.786°W
Report Text: KFBR 220935Z AUTO 00000KT CLR 01/M03 A3017 RMK AO2 T00141026 PWINO
Loading
Personal Weather Stations






























Interactive Weather Map
Tropical Storm Tracking
New forecast layout! Learn more

10-Day Weather Forecast

Advertisements
Track Severe Weather on mobile